Time;durP1;ratioP1;P1;durP2;ratioP2;P2;SDS_P1;SDS_P2;PMS_P1;PMS_P2;Temp;Humidity;BMP_temperature;BMP_pressure;BME280_temperature;BME280_humidity;BME280_pressure;Samples;Min_cycle;Max_cycle;Signal;HPM_P1;HPM_P2
2022/08/21 00:00:31;;;;;;;;;7.50;7.00;;;;;;;;5155572;28;8808;-75
2022/08/21 00:03:03;;;;;;;;;6.00;6.00;;;;;;;;5187980;28;8935;-74
2022/08/21 00:05:40;;;;;;;;;9.50;9.00;;;;;;;;5173016;28;8947;-74
2022/08/21 00:08:11;;;;;;;;;10.75;9.75;;;;;;;;5192130;28;8755;-75
2022/08/21 00:11:01;;;;;;;;;10.00;10.00;;;;;;;;5207573;28;8799;-75
2022/08/21 00:13:32;;;;;;;;;11.00;9.75;;;;;;;;5207188;28;8862;-74
2022/08/21 00:16:03;;;;;;;;;6.00;6.00;;;;;;;;5225853;28;8830;-75
2022/08/21 00:18:35;;;;;;;;;23.40;21.80;;;;;;;;5191662;28;8798;-74
2022/08/21 00:21:06;;;;;;;;;26.40;24.40;;;;;;;;5207510;28;8791;-75
2022/08/21 00:23:56;;;;;;;;;24.80;22.60;;;;;;;;5194218;28;8872;-75
2022/08/21 00:26:27;;;;;;;;;20.40;20.40;;;;;;;;5201388;28;8824;-75
2022/08/21 00:28:58;;;;;;;;;31.80;28.80;;;;;;;;5204044;28;8789;-74
2022/08/21 00:31:29;;;;;;;;;32.80;27.40;;;;;;;;5192736;28;8799;-75
2022/08/21 00:34:00;;;;;;;;;30.00;28.40;;;;;;;;5225438;28;8805;-75
2022/08/21 00:36:31;;;;;;;;;22.40;21.40;;;;;;;;5191464;28;8794;-75
2022/08/21 00:39:03;;;;;;;;;26.60;24.80;;;;;;;;5174968;28;8921;-74
2022/08/21 00:41:53;;;;;;;;;57.60;46.20;;;;;;;;5186627;28;8853;-76
2022/08/21 00:44:24;;;;;;;;;42.80;36.20;;;;;;;;5202949;28;8783;-76
2022/08/21 00:46:56;;;;;;;;;25.20;21.80;;;;;;;;5207767;28;8806;-76
2022/08/21 00:49:28;;;;;;;;;15.00;14.00;;;;;;;;5207779;28;8791;-75
2022/08/21 00:52:00;;;;;;;;;10.75;10.50;;;;;;;;5196878;28;8794;-75
2022/08/21 00:54:31;;;;;;;;;8.50;8.50;;;;;;;;5155015;28;8793;-75
2022/08/21 00:57:05;;;;;;;;;0.50;0.00;;;;;;;;5187300;28;9418;-74
2022/08/21 00:59:37;;;;;;;;;7.75;7.00;;;;;;;;5170952;28;8875;-74
2022/08/21 01:02:27;;;;;;;;;9.75;8.25;;;;;;;;5187122;28;8797;-75
2022/08/21 01:04:59;;;;;;;;;9.00;9.00;;;;;;;;5186227;28;8858;-74
2022/08/21 01:07:31;;;;;;;;;8.50;7.50;;;;;;;;5223876;28;8783;-75
2022/08/21 01:10:20;;;;;;;;;7.50;7.50;;;;;;;;5225236;28;9517;-75
2022/08/21 01:12:52;;;;;;;;;10.50;8.75;;;;;;;;5206574;28;8783;-74
2022/08/21 01:15:28;;;;;;;;;10.25;9.25;;;;;;;;5191113;28;8802;-74
2022/08/21 01:17:59;;;;;;;;;5.75;5.75;;;;;;;;5207339;28;8782;-75
2022/08/21 01:20:30;;;;;;;;;8.25;7.50;;;;;;;;5207267;28;8795;-75
2022/08/21 01:23:02;;;;;;;;;6.75;6.00;;;;;;;;5207321;28;9651;-74
2022/08/21 01:25:52;;;;;;;;;7.75;7.50;;;;;;;;5202216;28;8805;-75
2022/08/21 01:28:24;;;;;;;;;8.50;8.00;;;;;;;;5170644;28;8817;-74
2022/08/21 01:31:14;;;;;;;;;10.00;9.25;;;;;;;;5211488;28;9533;-74
2022/08/21 01:33:45;;;;;;;;;12.25;11.25;;;;;;;;5207097;28;8817;-75
2022/08/21 01:36:17;;;;;;;;;12.50;12.00;;;;;;;;5190167;28;8783;-75
2022/08/21 01:38:48;;;;;;;;;14.25;13.00;;;;;;;;5210586;28;8775;-73
2022/08/21 01:41:19;;;;;;;;;16.75;13.25;;;;;;;;5225644;28;8928;-74
2022/08/21 01:43:50;;;;;;;;;8.00;7.00;;;;;;;;5211514;28;8845;-75
2022/08/21 01:46:21;;;;;;;;;7.50;7.25;;;;;;;;5211054;28;9521;-75
2022/08/21 01:48:53;;;;;;;;;9.00;9.00;;;;;;;;5178363;28;8917;-74
2022/08/21 01:51:42;;;;;;;;;14.00;12.25;;;;;;;;5184226;28;8813;-75
2022/08/21 01:54:14;;;;;;;;;11.50;11.50;;;;;;;;5174370;28;8773;-75
2022/08/21 01:57:04;;;;;;;;;10.75;9.75;;;;;;;;5190457;28;8809;-75
2022/08/21 01:59:36;;;;;;;;;7.25;7.25;;;;;;;;5207945;28;8773;-80
2022/08/21 02:02:08;;;;;;;;;6.50;6.25;;;;;;;;5206541;28;8797;-80
2022/08/21 02:04:39;;;;;;;;;11.00;10.00;;;;;;;;5209030;28;8777;-75
2022/08/21 02:07:11;;;;;;;;;11.50;11.00;;;;;;;;5227149;28;8831;-75
2022/08/21 02:09:42;;;;;;;;;11.50;10.00;;;;;;;;5224395;28;8790;-74
2022/08/21 02:12:13;;;;;;;;;10.00;10.00;;;;;;;;5241072;28;8979;-74
2022/08/21 02:14:44;;;;;;;;;8.50;8.25;;;;;;;;5177771;28;8791;-75
2022/08/21 02:17:16;;;;;;;;;5.50;5.25;;;;;;;;5178023;28;8793;-74
2022/08/21 02:20:05;;;;;;;;;9.00;8.00;;;;;;;;5209748;28;8818;-75
2022/08/21 02:22:37;;;;;;;;;10.00;9.00;;;;;;;;5210067;28;8807;-75
2022/08/21 02:25:08;;;;;;;;;7.50;6.75;;;;;;;;5190232;28;8852;-75
2022/08/21 02:27:42;;;;;;;;;9.50;9.50;;;;;;;;5173871;28;8812;-74
2022/08/21 02:30:33;;;;;;;;;13.00;11.75;;;;;;;;5192524;28;8765;-74
2022/08/21 02:33:05;;;;;;;;;17.50;16.50;;;;;;;;5173201;28;8797;-74
2022/08/21 02:35:36;;;;;;;;;153.67;138.33;;;;;;;;5189423;28;8789;-75
2022/08/21 02:38:09;;;;;;;;;78.20;66.80;;;;;;;;5174038;28;9610;-75
2022/08/21 02:40:42;;;;;;;;;68.60;55.60;;;;;;;;5156787;28;8824;-74
2022/08/21 02:43:14;;;;;;;;;198.25;178.00;;;;;;;;5173473;28;8843;-74
2022/08/21 02:45:46;;;;;;;;;164.00;135.00;;;;;;;;5198102;28;11518;-73
2022/08/21 02:48:36;;;;;;;;;72.40;58.00;;;;;;;;5195254;28;10637;-73
2022/08/21 02:51:26;;;;;;;;;61.20;48.20;;;;;;;;5195730;28;8767;-73
2022/08/21 02:53:57;;;;;;;;;78.20;69.00;;;;;;;;5209671;28;8921;-73
2022/08/21 02:56:28;;;;;;;;;72.00;56.60;;;;;;;;5193019;28;8821;-73
2022/08/21 02:59:00;;;;;;;;;78.60;71.20;;;;;;;;5193082;28;9537;-72
2022/08/21 03:01:31;;;;;;;;;53.20;43.20;;;;;;;;5209194;28;9666;-74
2022/08/21 03:04:02;;;;;;;;;78.75;71.50;;;;;;;;5209362;28;8933;-74
2022/08/21 03:06:52;;;;;;;;;96.60;88.80;;;;;;;;5206562;28;11487;-73
2022/08/21 03:09:23;;;;;;;;;87.60;80.40;;;;;;;;5188795;28;8797;-74
2022/08/21 03:11:55;;;;;;;;;64.80;49.40;;;;;;;;5189311;28;8812;-74
2022/08/21 03:14:26;;;;;;;;;66.80;53.20;;;;;;;;5188779;28;8789;-73
2022/08/21 03:16:56;;;;;;;;;65.80;50.40;;;;;;;;5156407;28;8773;-74
2022/08/21 03:19:28;;;;;;;;;64.20;52.00;;;;;;;;5191272;28;9526;-74
2022/08/21 03:21:59;;;;;;;;;72.60;58.00;;;;;;;;5209149;28;8815;-74
2022/08/21 03:24:30;;;;;;;;;96.75;92.00;;;;;;;;5208833;28;8814;-74
2022/08/21 03:27:01;;;;;;;;;57.60;47.00;;;;;;;;5209074;28;8799;-74
2022/08/21 03:29:33;;;;;;;;;41.20;34.20;;;;;;;;5207817;28;8787;-79
2022/08/21 03:32:04;;;;;;;;;52.80;43.60;;;;;;;;5206074;28;8846;-74
2022/08/21 03:34:36;;;;;;;;;146.50;126.25;;;;;;;;5206073;28;8789;-74
2022/08/21 03:37:07;;;;;;;;;50.80;41.00;;;;;;;;5202817;28;8844;-75
2022/08/21 03:39:39;;;;;;;;;43.60;35.80;;;;;;;;5208508;28;8787;-75
2022/08/21 03:42:10;;;;;;;;;33.40;30.00;;;;;;;;5206253;28;8937;-72
2022/08/21 03:44:42;;;;;;;;;91.40;83.80;;;;;;;;5208170;28;8810;-75
2022/08/21 03:47:14;;;;;;;;;57.80;44.60;;;;;;;;5175656;28;8834;-72
2022/08/21 03:49:45;;;;;;;;;312.67;286.67;;;;;;;;5206440;28;8786;-73
2022/08/21 03:52:17;;;;;;;;;54.40;45.00;;;;;;;;5189859;28;8779;-74
2022/08/21 03:54:49;;;;;;;;;32.60;30.60;;;;;;;;5206158;28;9527;-74
2022/08/21 03:57:21;;;;;;;;;16.50;16.50;;;;;;;;5190335;28;9571;-75
2022/08/21 03:59:53;;;;;;;;;16.25;16.00;;;;;;;;5203382;28;8941;-75
2022/08/21 04:02:25;;;;;;;;;22.50;21.25;;;;;;;;5171526;28;8803;-75
2022/08/21 04:04:57;;;;;;;;;43.00;37.00;;;;;;;;5203705;28;8822;-75
2022/08/21 04:07:28;;;;;;;;;64.20;49.20;;;;;;;;5188234;28;8799;-74
2022/08/21 04:10:00;;;;;;;;;75.00;66.40;;;;;;;;5204747;28;8825;-74
2022/08/21 04:12:51;;;;;;;;;61.20;47.80;;;;;;;;5204320;28;8819;-76
2022/08/21 04:15:24;;;;;;;;;38.20;34.40;;;;;;;;5171952;28;8803;-74
2022/08/21 04:17:55;;;;;;;;;89.00;82.00;;;;;;;;5201784;28;9525;-74
2022/08/21 04:20:27;;;;;;;;;108.80;93.80;;;;;;;;5178216;28;8874;-73
2022/08/21 04:22:58;;;;;;;;;128.67;118.67;;;;;;;;5161469;28;8826;-77
2022/08/21 04:25:31;;;;;;;;;78.60;70.20;;;;;;;;5189039;28;8910;-75
2022/08/21 04:28:03;;;;;;;;;97.40;90.00;;;;;;;;5178511;28;8809;-75
2022/08/21 04:30:34;;;;;;;;;77.80;67.40;;;;;;;;5169834;28;8907;-75
2022/08/21 04:33:06;;;;;;;;;56.40;45.00;;;;;;;;5199661;28;8818;-75
2022/08/21 04:35:56;;;;;;;;;128.75;108.25;;;;;;;;5173939;28;9607;-75
2022/08/21 04:38:27;;;;;;;;;45.60;38.80;;;;;;;;5189432;28;8814;-74
2022/08/21 04:40:59;;;;;;;;;67.00;53.00;;;;;;;;5224221;28;8841;-75
2022/08/21 04:43:30;;;;;;;;;74.20;59.80;;;;;;;;5190975;28;9458;-75
2022/08/21 04:46:02;;;;;;;;;21.80;21.80;;;;;;;;5191651;28;8896;-74
2022/08/21 04:48:33;;;;;;;;;6.25;6.25;;;;;;;;5175162;28;8779;-73
2022/08/21 04:51:11;;;;;;;;;7.00;5.50;;;;;;;;5174738;28;8830;-74
2022/08/21 04:53:50;;;;;;;;;9.25;8.75;;;;;;;;5191418;28;8917;-73
2022/08/21 04:56:31;;;;;;;;;44.60;35.60;;;;;;;;5207911;28;9575;-74
2022/08/21 04:59:05;;;;;;;;;34.20;31.60;;;;;;;;5207687;28;9542;-73
2022/08/21 05:01:37;;;;;;;;;17.50;16.75;;;;;;;;5190985;28;8791;-73
2022/08/21 05:04:28;;;;;;;;;18.00;15.50;;;;;;;;5193876;28;8791;-73
2022/08/21 05:07:02;;;;;;;;;13.25;13.00;;;;;;;;5191505;28;9606;-73
2022/08/21 05:09:34;;;;;;;;;5.25;4.50;;;;;;;;5207906;28;8883;-73
2022/08/21 05:12:06;;;;;;;;;5.00;5.00;;;;;;;;5191679;28;8791;-73
2022/08/21 05:14:37;;;;;;;;;9.25;9.00;;;;;;;;5178939;28;9513;-73
2022/08/21 05:17:09;;;;;;;;;6.25;5.50;;;;;;;;5211678;28;8813;-72
2022/08/21 05:19:40;;;;;;;;;7.25;7.25;;;;;;;;5211755;28;8939;-72
2022/08/21 05:22:18;;;;;;;;;7.50;7.25;;;;;;;;5194835;28;8802;-72
2022/08/21 05:25:08;;;;;;;;;9.50;8.00;;;;;;;;5197725;28;8771;-72
2022/08/21 05:27:40;;;;;;;;;12.75;12.75;;;;;;;;5178550;28;8787;-72
2022/08/21 05:30:11;;;;;;;;;3.00;3.00;;;;;;;;5178747;28;8763;-73
2022/08/21 05:32:43;;;;;;;;;6.00;6.00;;;;;;;;5211316;28;8783;-73
2022/08/21 05:35:33;;;;;;;;;5.50;5.50;;;;;;;;5211195;28;8884;-72
2022/08/21 05:38:04;;;;;;;;;2.75;2.75;;;;;;;;5211809;28;9517;-72
2022/08/21 05:40:36;;;;;;;;;5.25;5.25;;;;;;;;5180792;28;8821;-73
2022/08/21 05:43:08;;;;;;;;;7.75;7.50;;;;;;;;5230356;28;8793;-72
2022/08/21 05:45:39;;;;;;;;;7.00;5.75;;;;;;;;5194654;28;8834;-72
2022/08/21 05:48:18;;;;;;;;;5.25;4.50;;;;;;;;5194913;28;9636;-72
2022/08/21 05:50:51;;;;;;;;;4.25;4.00;;;;;;;;5179153;28;8771;-72
2022/08/21 05:53:23;;;;;;;;;1.25;1.00;;;;;;;;5197644;28;9675;-72
2022/08/21 05:55:54;;;;;;;;;4.50;4.50;;;;;;;;5232505;28;8787;-72
2022/08/21 05:58:25;;;;;;;;;6.50;6.25;;;;;;;;5199943;28;9623;-72
2022/08/21 06:00:58;;;;;;;;;6.75;6.25;;;;;;;;5211193;28;9521;-72
2022/08/21 06:03:48;;;;;;;;;6.00;6.00;;;;;;;;5196718;28;8795;-71
2022/08/21 06:06:19;;;;;;;;;6.00;5.00;;;;;;;;5177871;28;8842;-71
2022/08/21 06:08:52;;;;;;;;;7.25;7.00;;;;;;;;5177942;28;8791;-72
2022/08/21 06:11:23;;;;;;;;;4.25;4.25;;;;;;;;5194426;28;8798;-72
2022/08/21 06:13:55;;;;;;;;;3.50;3.50;;;;;;;;5194223;28;8818;-72
2022/08/21 06:16:45;;;;;;;;;3.75;3.50;;;;;;;;5196776;28;8823;-72
2022/08/21 06:19:35;;;;;;;;;2.50;1.25;;;;;;;;5197179;28;8799;-72
2022/08/21 06:22:06;;;;;;;;;7.25;5.75;;;;;;;;5177491;28;8815;-72
2022/08/21 06:24:38;;;;;;;;;3.00;3.00;;;;;;;;5193253;28;9581;-72
2022/08/21 06:27:10;;;;;;;;;6.00;5.50;;;;;;;;5210394;28;9514;-72
2022/08/21 06:29:41;;;;;;;;;5.00;5.00;;;;;;;;5194277;28;8897;-72
2022/08/21 06:32:13;;;;;;;;;14.00;13.50;;;;;;;;5177553;28;8876;-72
2022/08/21 06:34:45;;;;;;;;;12.75;12.00;;;;;;;;5177748;28;8802;-72
2022/08/21 06:37:16;;;;;;;;;16.50;15.75;;;;;;;;5210167;28;8799;-72
2022/08/21 06:39:48;;;;;;;;;11.75;9.75;;;;;;;;5177459;28;8786;-73
2022/08/21 06:42:19;;;;;;;;;7.00;6.75;;;;;;;;5193635;28;8783;-73
2022/08/21 06:45:10;;;;;;;;;6.25;6.25;;;;;;;;5196082;28;9550;-73
2022/08/21 06:47:41;;;;;;;;;2.25;2.00;;;;;;;;5193479;28;8795;-73
2022/08/21 06:50:13;;;;;;;;;3.25;3.00;;;;;;;;5193301;28;8791;-73
2022/08/21 06:52:44;;;;;;;;;2.50;2.50;;;;;;;;5177205;28;8810;-73
2022/08/21 06:55:16;;;;;;;;;13.00;13.00;;;;;;;;5227603;28;8779;-73
2022/08/21 06:57:48;;;;;;;;;3.50;3.50;;;;;;;;5193256;28;8803;-73
2022/08/21 07:00:20;;;;;;;;;3.25;3.25;;;;;;;;5193410;28;8767;-73
2022/08/21 07:02:51;;;;;;;;;4.25;4.25;;;;;;;;5193487;28;8868;-72
2022/08/21 07:05:30;;;;;;;;;3.00;3.00;;;;;;;;5193463;28;8888;-72
2022/08/21 07:08:21;;;;;;;;;4.75;4.75;;;;;;;;5195970;28;8822;-73
2022/08/21 07:10:54;;;;;;;;;5.25;5.25;;;;;;;;5209641;28;8814;-73
2022/08/21 07:13:27;;;;;;;;;3.25;3.25;;;;;;;;5176890;28;8802;-73
2022/08/21 07:15:59;;;;;;;;;5.25;5.25;;;;;;;;5193040;28;8791;-73
2022/08/21 07:18:30;;;;;;;;;6.00;6.00;;;;;;;;5193002;28;8763;-73
2022/08/21 07:21:03;;;;;;;;;3.75;3.75;;;;;;;;5192910;28;9538;-73
2022/08/21 07:23:54;;;;;;;;;5.00;5.00;;;;;;;;5209086;28;8826;-71
2022/08/21 07:26:25;;;;;;;;;2.00;2.00;;;;;;;;5176634;28;8915;-73
2022/08/21 07:28:57;;;;;;;;;5.50;5.50;;;;;;;;5209152;28;8787;-73
2022/08/21 07:31:28;;;;;;;;;9.25;9.00;;;;;;;;5209144;28;8845;-73
2022/08/21 07:33:59;;;;;;;;;7.33;7.33;;;;;;;;5176651;28;8864;-73
2022/08/21 07:36:49;;;;;;;;;3.25;3.25;;;;;;;;5208819;28;8798;-73
2022/08/21 07:39:21;;;;;;;;;4.00;4.00;;;;;;;;5192630;28;9614;-73
2022/08/21 07:41:52;;;;;;;;;3.00;3.00;;;;;;;;5192741;28;8819;-73
2022/08/21 07:44:24;;;;;;;;;4.25;4.25;;;;;;;;5176699;28;8763;-73
2022/08/21 07:46:55;;;;;;;;;4.25;4.25;;;;;;;;5192517;28;9706;-72
2022/08/21 07:49:27;;;;;;;;;3.50;3.50;;;;;;;;5192328;28;8861;-73
2022/08/21 07:52:17;;;;;;;;;4.75;4.75;;;;;;;;5208781;28;8787;-73
2022/08/21 07:54:48;;;;;;;;;4.00;4.00;;;;;;;;5192165;28;8787;-72
2022/08/21 07:57:20;;;;;;;;;6.25;6.25;;;;;;;;5192496;28;8790;-72
2022/08/21 08:00:11;;;;;;;;;4.50;4.50;;;;;;;;5208508;28;8791;-72
2022/08/21 08:02:49;;;;;;;;;3.75;3.75;;;;;;;;5192334;28;8806;-72
2022/08/21 08:05:21;;;;;;;;;15.75;15.75;;;;;;;;5209495;28;8827;-72
2022/08/21 08:07:52;;;;;;;;;7.50;7.50;;;;;;;;5208752;28;8783;-72
2022/08/21 08:10:24;;;;;;;;;3.75;3.75;;;;;;;;5192028;28;8869;-72
2022/08/21 08:12:55;;;;;;;;;3.50;3.50;;;;;;;;5192033;28;8807;-72
2022/08/21 08:15:27;;;;;;;;;2.75;2.75;;;;;;;;5191800;28;8833;-72
2022/08/21 08:17:58;;;;;;;;;12.75;12.75;;;;;;;;5191821;28;8813;-72
2022/08/21 08:20:29;;;;;;;;;15.50;15.25;;;;;;;;5192144;28;8799;-72
2022/08/21 08:23:00;;;;;;;;;224.00;213.00;;;;;;;;5225674;28;8925;-72
2022/08/21 08:25:31;;;;;;;;;43.50;37.75;;;;;;;;5191445;28;11721;-72
2022/08/21 08:28:03;;;;;;;;;4.00;4.00;;;;;;;;5192014;28;10747;-72
2022/08/21 08:30:34;;;;;;;;;2.75;2.75;;;;;;;;5191676;28;8858;-72
2022/08/21 08:33:05;;;;;;;;;3.00;3.00;;;;;;;;5175524;28;8795;-72
2022/08/21 08:35:36;;;;;;;;;5.50;5.50;;;;;;;;5191600;28;8929;-72
2022/08/21 08:38:07;;;;;;;;;4.00;4.00;;;;;;;;5175230;28;8906;-72
2022/08/21 08:40:47;;;;;;;;;1.50;1.50;;;;;;;;5191583;28;9533;-72
2022/08/21 08:43:18;;;;;;;;;6.50;6.50;;;;;;;;5191735;28;9607;-72
2022/08/21 08:45:51;;;;;;;;;7.50;7.50;;;;;;;;5191502;28;8831;-72
2022/08/21 08:48:31;;;;;;;;;2.75;2.75;;;;;;;;5191044;28;8917;-73
2022/08/21 08:51:04;;;;;;;;;5.00;5.00;;;;;;;;5175435;28;8783;-72
2022/08/21 08:53:44;;;;;;;;;3.00;3.00;;;;;;;;5191296;28;8799;-72
2022/08/21 08:56:15;;;;;;;;;1.00;1.00;;;;;;;;5207829;28;9729;-72
2022/08/21 08:58:47;;;;;;;;;2.00;2.00;;;;;;;;5174888;28;8901;-72
2022/08/21 09:01:19;;;;;;;;;4.50;4.50;;;;;;;;5191500;28;9489;-72
2022/08/21 09:03:51;;;;;;;;;4.00;4.00;;;;;;;;5174850;28;8791;-72
2022/08/21 09:06:52;;;;;;;;;36.00;32.40;;;;;;;;5194029;28;8810;-73
2022/08/21 09:09:42;;;;;;;;;6.00;6.00;;;;;;;;5192174;28;8901;-74
2022/08/21 09:12:16;;;;;;;;;7.00;7.00;;;;;;;;5175539;28;9498;-73
2022/08/21 09:14:54;;;;;;;;;3.50;3.50;;;;;;;;5174846;28;8779;-72
2022/08/21 09:17:44;;;;;;;;;4.00;4.00;;;;;;;;5207743;28;8823;-72
2022/08/21 09:20:31;;;;;;;;;11.50;11.50;;;;;;;;5175173;28;8819;-72
2022/08/21 09:23:36;;;;;;;;;3.00;3.00;;;;;;;;5192988;28;8811;-72
2022/08/21 09:26:11;;;;;;;;;2.00;2.00;;;;;;;;5191112;28;8945;-72
2022/08/21 09:28:43;;;;;;;;;11.00;11.00;;;;;;;;5191762;28;8795;-72
2022/08/21 09:31:20;;;;;;;;;5.00;5.00;;;;;;;;5207671;28;8901;-73
2022/08/21 09:33:57;;;;;;;;;3.00;3.00;;;;;;;;5191314;28;8791;-73
2022/08/21 09:36:37;;;;;;;;;3.00;3.00;;;;;;;;5190969;28;8860;-72
2022/08/21 09:39:09;;;;;;;;;1.00;1.00;;;;;;;;5191586;28;8868;-72
2022/08/21 09:41:40;;;;;;;;;2.50;2.50;;;;;;;;5190830;28;9596;-72
2022/08/21 09:44:11;;;;;;;;;3.50;3.50;;;;;;;;5207652;28;8803;-72
2022/08/21 09:46:50;;;;;;;;;3.00;3.00;;;;;;;;5174253;28;8953;-73
2022/08/21 09:49:33;;;;;;;;;2.00;2.00;;;;;;;;5207303;28;8767;-73
2022/08/21 09:52:15;;;;;;;;;4.00;4.00;;;;;;;;5191284;28;8957;-73
2022/08/21 09:54:46;;;;;;;;;6.00;6.00;;;;;;;;5207322;28;8795;-73
2022/08/21 09:57:46;;;;;;;;;2.25;2.25;;;;;;;;5207242;28;8787;-72
2022/08/21 10:00:20;;;;;;;;;3.25;3.25;;;;;;;;5176692;28;8868;-73
2022/08/21 10:03:11;;;;;;;;;2.75;2.75;;;;;;;;5196944;28;8913;-72
2022/08/21 10:06:08;;;;;;;;;1.75;1.75;;;;;;;;5197005;28;9578;-73
2022/08/21 10:08:40;;;;;;;;;11.25;11.25;;;;;;;;5194399;28;8771;-72
2022/08/21 10:11:12;;;;;;;;;0.50;0.50;;;;;;;;5177920;28;8783;-73
2022/08/21 10:13:44;;;;;;;;;3.00;3.00;;;;;;;;5210712;28;8913;-71
2022/08/21 10:16:22;;;;;;;;;3.75;3.75;;;;;;;;5210247;28;8837;-71
2022/08/21 10:19:11;;;;;;;;;2.00;2.00;;;;;;;;5210737;28;8795;-71
2022/08/21 10:21:58;;;;;;;;;3.00;3.00;;;;;;;;5177882;28;8779;-72
2022/08/21 10:24:39;;;;;;;;;3.25;3.25;;;;;;;;5191192;28;9417;-71
2022/08/21 10:27:15;;;;;;;;;3.50;3.50;;;;;;;;5194422;28;8953;-71
2022/08/21 10:30:04;;;;;;;;;2.25;2.25;;;;;;;;5193778;28;8814;-71
2022/08/21 10:32:56;;;;;;;;;3.50;3.50;;;;;;;;5193847;28;8790;-71
2022/08/21 10:35:30;;;;;;;;;3.50;3.50;;;;;;;;5177639;28;8790;-71
2022/08/21 10:38:27;;;;;;;;;2.25;2.25;;;;;;;;5193736;28;9470;-71
2022/08/21 10:41:07;;;;;;;;;2.75;2.75;;;;;;;;5177542;28;8807;-70
2022/08/21 10:43:58;;;;;;;;;52.40;44.20;;;;;;;;5177511;28;9530;-71
2022/08/21 10:46:46;;;;;;;;;3.75;3.75;;;;;;;;5138226;28;8818;-71
2022/08/21 10:49:40;;;;;;;;;3.25;3.25;;;;;;;;5210062;28;8833;-71
2022/08/21 10:52:30;;;;;;;;;3.00;3.00;;;;;;;;5183218;28;9478;-71
2022/08/21 10:55:18;;;;;;;;;2.50;2.50;;;;;;;;5193678;28;9580;-71
2022/08/21 10:58:12;;;;;;;;;1.00;1.00;;;;;;;;5176963;28;8791;-71
2022/08/21 11:00:49;;;;;;;;;2.00;2.00;;;;;;;;5183229;28;9521;-71
2022/08/21 11:03:41;;;;;;;;;2.00;2.00;;;;;;;;5177138;28;8779;-71
2022/08/21 11:06:14;;;;;;;;;3.00;3.00;;;;;;;;5209684;28;9834;-71
2022/08/21 11:08:50;;;;;;;;;4.50;4.50;;;;;;;;5209670;28;8807;-71
2022/08/21 11:11:32;;;;;;;;;7.00;7.00;;;;;;;;5196736;28;8809;-71
2022/08/21 11:14:23;;;;;;;;;1.50;1.50;;;;;;;;5208909;28;8892;-71
2022/08/21 11:17:00;;;;;;;;;1.25;1.25;;;;;;;;5176504;28;9555;-73
2022/08/21 11:19:31;;;;;;;;;2.75;2.75;;;;;;;;5195171;28;8911;-72
2022/08/21 11:22:08;;;;;;;;;2.75;2.75;;;;;;;;5186146;28;9641;-73
2022/08/21 11:25:02;;;;;;;;;3.00;3.00;;;;;;;;5194613;28;8827;-72
2022/08/21 11:27:40;;;;;;;;;10.25;10.25;;;;;;;;5191277;28;8820;-72
2022/08/21 11:30:12;;;;;;;;;3.50;3.50;;;;;;;;5207706;28;8804;-73
2022/08/21 11:33:12;;;;;;;;;1.75;1.75;;;;;;;;5186785;28;8935;-73
2022/08/21 11:36:10;;;;;;;;;2.50;2.50;;;;;;;;5179662;28;8950;-73
2022/08/21 11:38:47;;;;;;;;;3.25;3.25;;;;;;;;5175111;28;8798;-73
2022/08/21 11:41:34;;;;;;;;;4.00;4.00;;;;;;;;5187660;28;8805;-73
2022/08/21 11:44:28;;;;;;;;;3.75;3.75;;;;;;;;5155302;28;9690;-73
2022/08/21 11:47:29;;;;;;;;;5.25;5.25;;;;;;;;5189634;28;9528;-74
2022/08/21 11:50:15;;;;;;;;;4.00;4.00;;;;;;;;5170827;28;8931;-72
2022/08/21 11:52:49;;;;;;;;;14.25;14.25;;;;;;;;5220025;28;8826;-73
2022/08/21 11:55:50;;;;;;;;;6.25;6.25;;;;;;;;5193587;28;8806;-72
2022/08/21 11:58:41;;;;;;;;;4.25;4.25;;;;;;;;5191504;28;8879;-72
2022/08/21 12:01:18;;;;;;;;;4.00;4.00;;;;;;;;5207502;28;9514;-73
2022/08/21 12:03:56;;;;;;;;;3.75;3.75;;;;;;;;5191163;28;8814;-72
2022/08/21 12:06:32;;;;;;;;;3.50;3.50;;;;;;;;5174294;28;8803;-72
2022/08/21 12:09:05;;;;;;;;;2.00;2.00;;;;;;;;5207707;28;9604;-73
2022/08/21 12:11:49;;;;;;;;;3.50;3.50;;;;;;;;5191175;28;8783;-72
2022/08/21 12:14:20;;;;;;;;;65.80;57.00;;;;;;;;5174828;28;8786;-73
2022/08/21 12:16:51;;;;;;;;;37.80;34.40;;;;;;;;5166552;28;9530;-72
2022/08/21 12:19:22;;;;;;;;;4.50;4.50;;;;;;;;5174886;28;8787;-72
2022/08/21 12:21:54;;;;;;;;;1.25;1.25;;;;;;;;5173700;28;9568;-72
2022/08/21 12:24:41;;;;;;;;;14.50;14.50;;;;;;;;5118256;28;1596717;-73
2022/08/21 12:27:12;;;;;;;;;32.20;31.00;;;;;;;;5174381;28;8803;-74
2022/08/21 12:29:51;;;;;;;;;5.75;5.75;;;;;;;;5171229;28;9523;-73
2022/08/21 12:32:24;;;;;;;;;17.25;17.25;;;;;;;;5185981;28;8783;-74
2022/08/21 12:35:20;;;;;;;;;3.25;3.25;;;;;;;;5173830;28;8904;-73
2022/08/21 12:38:20;;;;;;;;;1.75;1.75;;;;;;;;5171439;28;8765;-73
2022/08/21 12:40:54;;;;;;;;;6.00;6.00;;;;;;;;5171710;28;8804;-74
2022/08/21 12:43:28;;;;;;;;;19.25;19.25;;;;;;;;5171401;28;8825;-72
2022/08/21 12:46:00;;;;;;;;;5.00;5.00;;;;;;;;5186956;28;8863;-73
2022/08/21 12:48:50;;;;;;;;;3.50;3.50;;;;;;;;5190882;28;8831;-72
2022/08/21 12:51:26;;;;;;;;;3.00;3.00;;;;;;;;5163221;28;8847;-73
2022/08/21 12:54:23;;;;;;;;;3.00;3.00;;;;;;;;5212506;28;8836;-75
2022/08/21 12:57:02;;;;;;;;;3.00;3.00;;;;;;;;5158679;28;8867;-74
2022/08/21 12:59:37;;;;;;;;;6.50;6.50;;;;;;;;5187043;28;8793;-73
2022/08/21 13:02:16;;;;;;;;;4.00;4.00;;;;;;;;5187338;28;8805;-74
2022/08/21 13:04:48;;;;;;;;;7.50;7.50;;;;;;;;5170847;28;8925;-73
2022/08/21 13:07:24;;;;;;;;;6.00;6.00;;;;;;;;5203667;28;8947;-74
2022/08/21 13:10:18;;;;;;;;;9.00;9.00;;;;;;;;5173656;28;9559;-73
2022/08/21 13:12:49;;;;;;;;;7.75;7.75;;;;;;;;5188211;28;8815;-73
2022/08/21 13:15:26;;;;;;;;;3.00;3.00;;;;;;;;5186841;28;8800;-73
2022/08/21 13:18:01;;;;;;;;;2.75;2.75;;;;;;;;5205213;28;8808;-73
2022/08/21 13:20:42;;;;;;;;;2.00;2.00;;;;;;;;5170873;28;8928;-73
2022/08/21 13:23:24;;;;;;;;;3.25;3.25;;;;;;;;5157449;28;9507;-74
2022/08/21 13:26:15;;;;;;;;;2.25;2.25;;;;;;;;5186889;28;9749;-73
2022/08/21 13:29:10;;;;;;;;;2.00;2.00;;;;;;;;5189806;28;8805;-73
2022/08/21 13:31:49;;;;;;;;;1.75;1.75;;;;;;;;5183875;28;8795;-75
2022/08/21 13:34:22;;;;;;;;;1.75;1.75;;;;;;;;5193494;28;8779;-74
2022/08/21 13:36:55;;;;;;;;;4.75;4.00;;;;;;;;5194910;28;8798;-74
2022/08/21 13:39:26;;;;;;;;;1.75;1.75;;;;;;;;5211255;28;8928;-72
2022/08/21 13:41:59;;;;;;;;;3.50;3.50;;;;;;;;5172728;28;8797;-74
2022/08/21 13:44:30;;;;;;;;;8.00;8.00;;;;;;;;5206783;28;8781;-74
2022/08/21 13:47:20;;;;;;;;;11.25;11.25;;;;;;;;5176557;28;8820;-73
2022/08/21 13:49:52;;;;;;;;;4.25;4.25;;;;;;;;5174250;28;9523;-73
2022/08/21 13:52:25;;;;;;;;;1.75;1.75;;;;;;;;5190421;28;8908;-73
2022/08/21 13:54:58;;;;;;;;;0.25;0.25;;;;;;;;5190377;28;8959;-74
2022/08/21 13:57:30;;;;;;;;;10.50;10.50;;;;;;;;5207008;28;8922;-75
2022/08/21 14:00:13;;;;;;;;;4.25;4.25;;;;;;;;5173343;28;8789;-73
2022/08/21 14:02:52;;;;;;;;;4.00;4.00;;;;;;;;5157712;28;8808;-74
2022/08/21 14:05:45;;;;;;;;;2.00;2.00;;;;;;;;5190460;28;8823;-75
2022/08/21 14:08:26;;;;;;;;;2.25;2.25;;;;;;;;5194845;28;8806;-75
2022/08/21 14:10:57;;;;;;;;;0.75;0.75;;;;;;;;5192386;28;8797;-75
2022/08/21 14:13:34;;;;;;;;;2.00;2.00;;;;;;;;5177756;28;9560;-74
2022/08/21 14:16:25;;;;;;;;;1.50;1.50;;;;;;;;5176487;28;9519;-73
2022/08/21 14:18:59;;;;;;;;;2.25;2.25;;;;;;;;5173603;28;8801;-73
2022/08/21 14:21:32;;;;;;;;;3.00;3.00;;;;;;;;5173606;28;8793;-74
2022/08/21 14:24:11;;;;;;;;;2.25;2.25;;;;;;;;5172367;28;8800;-75
2022/08/21 14:26:49;;;;;;;;;1.25;1.25;;;;;;;;5173384;28;8854;-75
2022/08/21 14:29:29;;;;;;;;;5.00;5.00;;;;;;;;5208606;28;8813;-74
2022/08/21 14:32:25;;;;;;;;;7.25;7.25;;;;;;;;5174813;28;8793;-74
2022/08/21 14:35:17;;;;;;;;;8.50;8.50;;;;;;;;5188858;28;8793;-73
2022/08/21 14:37:51;;;;;;;;;8.50;8.50;;;;;;;;5171312;28;8785;-75
2022/08/21 14:40:24;;;;;;;;;8.25;8.25;;;;;;;;5154193;28;8820;-75
2022/08/21 14:42:55;;;;;;;;;5.00;5.00;;;;;;;;5170069;28;8811;-75
2022/08/21 14:45:28;;;;;;;;;8.75;8.75;;;;;;;;5185893;28;8849;-74
2022/08/21 14:47:59;;;;;;;;;8.50;8.50;;;;;;;;5173521;28;8839;-74
2022/08/21 14:50:30;;;;;;;;;9.75;9.75;;;;;;;;5175604;28;8794;-74
2022/08/21 14:53:03;;;;;;;;;16.00;16.00;;;;;;;;5187934;28;8822;-75
2022/08/21 14:58:28;;;;;;;;;36.25;32.25;;;;;;;;5188423;28;8793;-74
2022/08/21 15:01:03;;;;;;;;;29.00;28.00;;;;;;;;5186580;28;8785;-73
2022/08/21 15:03:34;;;;;;;;;39.80;34.80;;;;;;;;5233636;28;8868;-74
2022/08/21 15:06:06;;;;;;;;;26.25;26.25;;;;;;;;5192928;28;8819;-74
2022/08/21 15:08:37;;;;;;;;;14.75;14.75;;;;;;;;5203021;28;8793;-73
2022/08/21 15:11:11;;;;;;;;;20.25;20.25;;;;;;;;5193084;28;8799;-74
2022/08/21 15:14:02;;;;;;;;;21.25;21.25;;;;;;;;5193342;28;8787;-73
2022/08/21 15:16:33;;;;;;;;;21.00;21.00;;;;;;;;5191341;28;8810;-74
2022/08/21 15:19:23;;;;;;;;;15.75;15.75;;;;;;;;5193677;28;8876;-75
2022/08/21 15:21:54;;;;;;;;;16.50;16.50;;;;;;;;5191212;28;9498;-75
2022/08/21 15:24:25;;;;;;;;;17.50;17.50;;;;;;;;5174267;28;8779;-73
2022/08/21 15:26:59;;;;;;;;;15.50;15.25;;;;;;;;5201973;28;8861;-72
2022/08/21 15:29:30;;;;;;;;;14.00;14.00;;;;;;;;5191959;28;8822;-74
2022/08/21 15:32:14;;;;;;;;;13.25;13.25;;;;;;;;5208377;28;9556;-73
2022/08/21 15:34:46;;;;;;;;;11.75;11.75;;;;;;;;5187380;28;8783;-76
2022/08/21 15:37:23;;;;;;;;;13.00;13.00;;;;;;;;5192880;28;8807;-75
2022/08/21 15:40:13;;;;;;;;;9.25;9.25;;;;;;;;5200019;28;8868;-74
2022/08/21 15:42:46;;;;;;;;;13.50;13.00;;;;;;;;5175989;28;8786;-74
2022/08/21 15:45:17;;;;;;;;;40.40;34.80;;;;;;;;5208462;28;8811;-74